Aeroporto :







RITROVATECI SU...

 
LOGIN :

Iscrizione | Disclaimer

   EN    FR    IT 

 









Sommario :    VFR   VFR Marginale   IFR   IFR Intensivo   IFR Molto Intensivo
Visibilità : 
Base nubi : 
>= 8 km
>= 3000ft
5 / 8 km
1000 / 3000 ft
1500m / 5 km
500 / 1000 ft
800 / 1500m
200 / 500 ft
< 800m
< 200 ft
Simboli :   Temporali  Nebbia  Neve Forte  Precipitazioni Forti  Vento > 20 kt







- Altitudine del aeroporto : 603 ft
- Codice IATA : LEB


KLEB - Lebanon Municipal

ULTIMO METAR :
  • 170053Z 17003KT 10SM CLR 10/07 A3007 RMK AO2 SLP181 T01000067

METARs OBSOLETI :
  • 162353Z 00000KT 10SM CLR 11/07 A3006 RMK AO2 SLP177 T01110067 10222 20111 51012
  • 162253Z 36004KT 10SM CLR 17/06 A3005 RMK AO2 SLP174 T01720056
  • 162153Z 34006KT 10SM CLR 20/06 A3004 RMK AO2 SLP168 T02000056

TAF KLEB
Valido dal 17 a 00 ore il 18 a 00 ore UTC


162336Z 1700/1724 VRB03KT P6SM SKC
FM170700 00000KT 1/2SM FG BKN001
FM171300 35007KT P6SM SCT050
Nessun NOTAM noto per questo aeroporto.



MetMap, La meteo Aeronautica in un colpo d'occhio ! - Copyright ORBIFLY Dicembre 2007 - Disclaimer

ORBIFLY MET'MAP TEAM :

Programmazione e sviluppo : Alexandra Zaïnal
Concezione e sviluppo : Baudouin d'Aumeries
Co-Programmazione e sviluppo : Marc-Olivier Méhu
Supporto tecnico e logistico : Manuel Goepfert
Aiuto per la traduzione : Arnaldo La Scala

Contatto : metmap@orbifly.com




FONTI E CREDITI :

   NOAA